North Huntingdon, PA (15642)

11:21 AM EST on February 07, 2016 (GMT -0500)
WWMA Treatment Plant | | Change Station
CLOSE
Current Station
Personal Weather Station
Location: Irwin, PA
Elevation: 879 ft
Nearby Weather Stations

Elev 879 ft 40.34 °N, 79.72 °W | Updated 36 seconds ago

Scattered Clouds
Scattered Clouds
45.0 °F
Feels Like 45 °F
N
0.0
Wind Variable Wind from SE
Gusts 8.0 mph

Today
High -- | Low -- °F
--% Chance of Precip.
Yesterday
High -- | Low -- °F
Precip. -- in
Pressure 30.12 in
Visibility 10.0 miles
Clouds Scattered Clouds 6000 ft
Windchill 45 °F
Dew Point 28 °F
Humidity 52%
Rainfall 0.00 in
Snow Depth Not available.
7:22 AM 5:44 PM
Waning Crescent, 1% visible
METAR KAGC 071553Z 14006KT 10SM SCT060 06/M06 A3007 RMK AO2 SLP197 T00561056
Pressure 30.12 in
Visibility 10.0 miles
Clouds Scattered Clouds 6000 ft
Windchill 45 °F
Dew Point 28 °F
Humidity 52%
Rainfall 0.00 in
Snow Depth Not available.
7:22 AM 5:44 PM
Waning Crescent, 1% visible
METAR KAGC 071553Z 14006KT 10SM SCT060 06/M06 A3007 RMK AO2 SLP197 T00561056

10-Day Weather Forecast

Almanac

Astronomy

Feb. 07, 2016 Rise Set
Actual Time
Civil Twilight
Nautical Twilight
Astronomical Twilight
Moon
Length of Visible Light
Length of Day
Tomorrow will be .
, % of the Moon is Illuminated

Today's Extremes

State Highs State Lows

Community

WunderPhotos

Upload Photos

1,891,221 photos uploaded!

WunderBlog® & News

Nearby

Air Quality

  Air Quality AQ Index Pollutant
Not available.

Snow Depth

Station Depth Elevation

Earthquake Activity

City Distance Mag. Time & Date
Minimum magnitude displayed is 2.5.

Coastal Water Temperatures

Place Temperature

Stations

Nearby Weather Stations

Station Location Temp. Windchill Dew Point Humidity Wind Precip. Elev Updated Type
                   

Watches & Warnings

There are currently no watches in effect.